This is the latest recevied weather packets stored in our database for station/object JA0BES-13. If no packets are shown the sender has not sent any weather packets the latest 1 day(s).
| Time | Temp. | Humidity | Pressure | Rain* | Wind** | Luminosity | Snow |
|---|---|---|---|---|---|---|---|
| 1778113604 | 19.44° C | 83% | 1012.4 hPa | 0 mm | - | - | - |
| 1778113004 | 18.89° C | 85% | 1012.6 hPa | 0 mm | - | - | - |
| 1778110602 | 17.22° C | 87% | 1013.1 hPa | 0 mm | - | - | - |
| 1778110002 | 17.22° C | 89% | 1013.3 hPa | 0 mm | - | - | - |
| 1778105199 | 15° C | 98% | 1014.5 hPa | 0 mm | - | - | - |
| 1778103998 | 13.89° C | 100% | 1014.7 hPa | 0 mm | - | - | - |
| 1778101597 | 12.78° C | 100% | 1014.5 hPa | 0 mm | - | - | - |
| 1778067977 | 17.78° C | 69% | 1016.1 hPa | 0 mm | - | - | - |
| 1778067377 | 17.78° C | 68% | 1016.1 hPa | 0 mm | - | - | - |
| 1778064372 | 18.89° C | 65% | 1015.5 hPa | 0 mm | - | - | - |
| 1778063772 | 18.89° C | 63% | 1015.5 hPa | 0 mm | - | - | - |
| 1778062571 | 19.44° C | 62% | 1015.3 hPa | 0 mm | - | - | - |
| 1778060770 | 20° C | 63% | 1015.1 hPa | 0 mm | - | - | - |
| 1778059569 | 20° C | 62% | 1015.1 hPa | 0 mm | - | - | - |
| 1778058969 | 20.56° C | 62% | 1014.9 hPa | 0 mm | - | - | - |
| 1778057768 | 21.11° C | 62% | 1015 hPa | 0 mm | - | - | - |
| 1778055967 | 21.11° C | 61% | 1014.6 hPa | 0 mm | - | - | - |
| 1778055367 | 21.67° C | 60% | 1014.7 hPa | 0 mm | - | - | - |
| 1778054766 | 21.67° C | 59% | 1014.7 hPa | 0 mm | - | - | - |
| 1778052365 | 23.33° C | 58% | 1014.5 hPa | 0 mm | - | - | - |
| 1778051765 | 23.33° C | 57% | 1014.7 hPa | 0 mm | - | - | - |
| 1778051164 | 23.89° C | 56% | 1014.5 hPa | 0 mm | - | - | - |
| 1778050564 | 23.89° C | 56% | 1014.3 hPa | 0 mm | - | - | - |
| 1778047562 | 24.44° C | 53% | 1014.6 hPa | 0 mm | - | - | - |
| 1778046962 | 25° C | 54% | 1014.7 hPa | 0 mm | - | - | - |
* Rain since midnight (hover to see other rain measurements)
** Current wind speed in m/s (hover to see current wind gust speed)